Main page
METAR-TAF:

METAR-TAF

Airports :

Augsburg, Germany

Augsburg Airport

latitude: 48-26N, longitude: 010-56E, elevation: 461 m

Current weather observation

The report was made 8 hours and 5 minutes ago, at 18:50 UTC
Wind 5 kt from the East/Southeast
Temperature 22°C
Humidity 50%
Pressure 1020 hPa
Visibility 10 km or more
no clouds below 1500 m and no cumulonimbus

METAR: EDMA 271850Z 11005KT CAVOK 22/11 Q1020

Time: 04:55 (02:55 UTC)

Forecast

The report was made 9 hours and 55 minutes ago, at 17:00 UTC
Forecast valid from 27 at 18 UTC to 28 at 03 UTC
Wind 4 kt from the East
Visibility 10 km or more
no clouds below 1500 m and no cumulonimbus

TAF: EDMA 271700Z 2718/2803 10004KT CAVOK

Weather observations and forecasts of more than 4000 airports (METAR and TAF reports).

The available stations are represented by yellow and red dots on the map.

Hover mouse over dot to see the name of the station.

Then click to see weather observations and forecasts.

To change the map : click on the green buttons with a black cross to zoom in, on the green button with a dash to zoom out, or on the green arrows for adjacent maps.


METAR-TAF: